Terminal Aerodrome Forecast
Issued by NWS

Home | Current Version | Previous Version | Text Only | Print | Product List | Glossary On
Versions: 1 2 3 4 5 6 7 8 9 10 11 12 13 14 15 16 17 18 19 20 21 22 23 24
335
FTUS44 KOUN 160520
TAFHBR
TAF
KHBR 160520Z 1606/1706 19014G19KT P6SM SKC
     FM161500 20017G25KT P6SM SKC
     FM161900 19022G31KT P6SM BKN250
     FM162300 17014G23KT P6SM BKN100=

USA.gov is the U.S. government's official web portal to all federal, state and local government web resources and services.